createdAt,value
2022-10-13T00:01:39.023Z,7.40
2022-10-13T00:04:05.535Z,8.13
2022-10-13T00:06:31.981Z,7.80
2022-10-13T00:08:58.929Z,8.03
2022-10-13T00:11:27.954Z,7.87
2022-10-13T00:14:00.578Z,7.77
2022-10-13T00:16:28.136Z,7.70
2022-10-13T00:18:55.035Z,9.07
2022-10-13T00:21:24.946Z,8.67
2022-10-13T00:23:52.256Z,7.80
2022-10-13T00:26:20.107Z,8.13
2022-10-13T00:28:52.034Z,7.60
2022-10-13T00:31:24.743Z,8.13
2022-10-13T00:33:52.835Z,8.10
2022-10-13T00:36:20.369Z,7.47
2022-10-13T00:38:46.721Z,7.77
2022-10-13T00:41:13.782Z,8.03
2022-10-13T00:44:02.991Z,8.00
2022-10-13T00:46:35.015Z,7.90
2022-10-13T00:49:08.489Z,8.30
2022-10-13T00:51:40.864Z,7.83
2022-10-13T00:54:09.743Z,8.50
2022-10-13T00:56:37.832Z,8.20
2022-10-13T00:59:09.374Z,7.87
2022-10-13T01:01:35.786Z,8.47
2022-10-13T01:04:02.254Z,8.17
2022-10-13T01:06:28.874Z,8.77
2022-10-13T01:08:55.189Z,8.63
2022-10-13T01:11:47.554Z,8.20
2022-10-13T01:14:19.855Z,8.27
2022-10-13T01:17:06.620Z,9.20
2022-10-13T01:20:02.374Z,8.30
2022-10-13T01:23:02.648Z,8.87
2022-10-13T01:26:02.935Z,8.67
2022-10-13T01:29:06.166Z,9.10
2022-10-13T01:31:52.935Z,9.23
2022-10-13T01:34:28.438Z,8.77
2022-10-13T01:37:03.864Z,8.97
2022-10-13T01:39:41.153Z,9.50
2022-10-13T01:42:16.591Z,9.70
2022-10-13T01:44:51.476Z,9.50
2022-10-13T01:47:19.127Z,9.50
2022-10-13T01:49:46.533Z,9.73
2022-10-13T01:52:17.162Z,10.27
2022-10-13T01:54:48.603Z,10.90
2022-10-13T01:57:39.863Z,10.13
2022-10-13T02:00:12.424Z,9.63
2022-10-13T02:03:06.606Z,9.77
2022-10-13T02:05:49.229Z,9.77
2022-10-13T02:08:39.924Z,10.80
2022-10-13T02:11:13.624Z,10.17
2022-10-13T02:13:47.577Z,9.60
2022-10-13T02:16:15.857Z,9.43
2022-10-13T02:18:43.748Z,8.67
2022-10-13T02:21:10.676Z,9.33
2022-10-13T02:23:37.150Z,9.77
2022-10-13T02:26:03.742Z,9.30
2022-10-13T02:28:30.306Z,9.97
2022-10-13T02:30:56.783Z,9.73
2022-10-13T02:33:23.111Z,9.10
2022-10-13T02:35:49.571Z,8.80
2022-10-13T02:38:15.958Z,9.90
2022-10-13T02:40:42.269Z,9.87
2022-10-13T02:43:08.757Z,10.00
2022-10-13T02:45:35.099Z,8.67
2022-10-13T02:48:01.475Z,9.67
2022-10-13T02:50:27.974Z,10.23
2022-10-13T02:52:54.380Z,9.53
2022-10-13T02:55:20.903Z,9.90
2022-10-13T02:57:47.346Z,9.93
2022-10-13T03:00:14.612Z,9.93
2022-10-13T03:02:41.002Z,10.03
2022-10-13T03:05:07.782Z,9.97
2022-10-13T03:07:34.253Z,10.33
2022-10-13T03:10:01.389Z,9.30
2022-10-13T03:12:27.926Z,10.03
2022-10-13T03:14:54.223Z,9.63
2022-10-13T03:17:20.595Z,10.33
2022-10-13T03:19:47.206Z,10.60
2022-10-13T03:22:15.333Z,10.27
2022-10-13T03:24:42.345Z,9.73
2022-10-13T03:27:09.130Z,10.03
2022-10-13T03:29:35.509Z,10.47
2022-10-13T03:32:01.849Z,10.03
2022-10-13T03:34:28.286Z,10.50
2022-10-13T03:36:54.619Z,10.90
2022-10-13T03:39:22.356Z,10.70
2022-10-13T03:41:48.985Z,10.07
2022-10-13T03:44:15.458Z,11.37
2022-10-13T03:46:41.841Z,10.37
2022-10-13T03:49:10.033Z,10.90
2022-10-13T03:51:36.443Z,10.97
2022-10-13T03:54:02.833Z,11.10
2022-10-13T03:56:29.274Z,10.60
2022-10-13T03:58:57.671Z,10.30
2022-10-13T04:01:29.940Z,10.87
2022-10-13T04:03:57.850Z,10.67
2022-10-13T04:06:25.693Z,10.87
2022-10-13T04:08:52.484Z,11.07
2022-10-13T04:11:19.751Z,10.80
2022-10-13T04:13:46.182Z,10.73
2022-10-13T04:16:16.336Z,10.27
2022-10-13T04:18:44.866Z,11.27
2022-10-13T04:21:14.730Z,10.83
2022-10-13T04:23:41.508Z,11.13
2022-10-13T04:26:14.212Z,10.27
2022-10-13T04:28:40.626Z,10.43
2022-10-13T04:31:07.102Z,11.37
2022-10-13T04:33:33.466Z,11.07
2022-10-13T04:36:04.332Z,10.77
2022-10-13T04:38:30.818Z,11.10
2022-10-13T04:40:57.146Z,10.80
2022-10-13T04:43:23.496Z,11.23
2022-10-13T04:45:49.828Z,11.33
2022-10-13T04:48:16.137Z,11.40
2022-10-13T04:50:42.565Z,10.70
2022-10-13T04:53:08.911Z,11.80
2022-10-13T04:55:36.898Z,10.53
2022-10-13T04:58:03.421Z,10.40
2022-10-13T05:00:29.927Z,11.50
2022-10-13T05:02:56.257Z,10.37
2022-10-13T05:05:22.712Z,11.10
2022-10-13T05:07:49.134Z,10.67
2022-10-13T05:10:15.513Z,10.33
2022-10-13T05:12:41.887Z,10.63
2022-10-13T05:15:08.692Z,11.10
2022-10-13T05:17:35.604Z,11.47
2022-10-13T05:20:02.588Z,11.00
2022-10-13T05:22:29.902Z,10.80
2022-10-13T05:24:56.199Z,10.43
2022-10-13T05:27:23.189Z,11.10
2022-10-13T05:29:49.759Z,10.37
2022-10-13T05:32:16.133Z,10.10
2022-10-13T05:34:42.587Z,10.87
2022-10-13T05:37:09.153Z,10.93
2022-10-13T05:39:35.902Z,10.40
2022-10-13T05:42:02.451Z,10.03
2022-10-13T05:44:29.754Z,10.77
2022-10-13T05:46:56.973Z,10.70
2022-10-13T05:49:23.679Z,10.23
2022-10-13T05:51:55.421Z,10.60
2022-10-13T05:54:36.577Z,9.93
2022-10-13T05:57:10.932Z,10.80
2022-10-13T05:59:41.864Z,9.97
2022-10-13T06:02:12.256Z,9.93
2022-10-13T06:04:43.463Z,10.53
2022-10-13T06:07:10.470Z,10.90
2022-10-13T06:09:38.548Z,10.20
2022-10-13T06:12:06.388Z,10.63
2022-10-13T06:14:32.990Z,10.23
2022-10-13T06:16:59.419Z,10.00
2022-10-13T06:19:26.119Z,9.53
2022-10-13T06:21:52.432Z,10.47
2022-10-13T06:24:19.019Z,9.70
2022-10-13T06:26:45.384Z,9.90
2022-10-13T06:29:12.062Z,10.17
2022-10-13T06:31:38.475Z,10.03
2022-10-13T06:34:04.895Z,10.53
2022-10-13T06:36:31.534Z,10.23
2022-10-13T06:38:57.883Z,10.13
2022-10-13T06:41:24.202Z,10.53
2022-10-13T06:43:50.559Z,9.97
2022-10-13T06:46:17.314Z,9.93
2022-10-13T06:48:43.713Z,9.13
2022-10-13T06:51:11.405Z,10.20
2022-10-13T06:53:40.680Z,9.67
2022-10-13T06:56:07.541Z,9.60
2022-10-13T06:58:35.195Z,9.90
2022-10-13T07:01:01.614Z,9.17
2022-10-13T07:03:28.103Z,9.57
2022-10-13T07:05:54.759Z,10.00
2022-10-13T07:08:21.463Z,9.87
2022-10-13T07:10:48.749Z,10.90
2022-10-13T07:13:15.122Z,9.93
2022-10-13T07:15:41.456Z,9.97
2022-10-13T07:18:08.112Z,9.67
2022-10-13T07:20:34.996Z,9.30
2022-10-13T07:23:01.642Z,9.57
2022-10-13T07:25:28.174Z,9.13
2022-10-13T07:27:54.728Z,9.07
2022-10-13T07:30:21.198Z,8.40
2022-10-13T07:32:48.124Z,8.50
2022-10-13T07:35:14.471Z,9.07
2022-10-13T07:37:40.804Z,9.03
2022-10-13T07:40:08.259Z,8.67
2022-10-13T07:42:35.232Z,8.77
2022-10-13T07:45:01.558Z,8.33
2022-10-13T07:47:28.686Z,8.57
2022-10-13T07:49:55.682Z,8.50
2022-10-13T07:52:22.731Z,8.97
2022-10-13T07:54:50.608Z,8.00
2022-10-13T07:57:17.320Z,8.60
2022-10-13T07:59:43.927Z,8.53
2022-10-13T08:02:10.290Z,8.50
2022-10-13T08:04:37.170Z,7.70
2022-10-13T08:07:04.443Z,8.13
2022-10-13T08:09:30.980Z,8.40
2022-10-13T08:12:00.615Z,8.67
2022-10-13T08:14:28.834Z,8.67
2022-10-13T08:16:55.679Z,8.43
2022-10-13T08:19:22.523Z,8.43
2022-10-13T08:21:58.899Z,8.60
2022-10-13T08:24:26.821Z,8.43
2022-10-13T08:26:53.295Z,8.10
2022-10-13T08:29:22.350Z,8.03
2022-10-13T08:31:51.407Z,8.87
2022-10-13T08:34:18.112Z,8.50
2022-10-13T08:36:44.560Z,7.73
2022-10-13T08:39:11.206Z,8.60
2022-10-13T08:41:40.532Z,8.23
2022-10-13T08:45:05.929Z,7.47
2022-10-13T08:47:27.651Z,8.10
2022-10-13T08:50:00.258Z,8.00
2022-10-13T08:52:29.703Z,7.70
2022-10-13T08:54:57.201Z,9.57
2022-10-13T08:57:24.293Z,7.93
2022-10-13T08:59:52.544Z,8.03
2022-10-13T09:02:30.617Z,7.53
2022-10-13T09:05:01.724Z,7.60
2022-10-13T09:07:32.566Z,7.70
2022-10-13T09:09:58.903Z,8.10
2022-10-13T09:12:26.127Z,7.80
2022-10-13T09:14:58.880Z,7.47
2022-10-13T09:17:28.742Z,7.27
2022-10-13T09:20:08.368Z,7.67
2022-10-13T09:22:37.503Z,7.73
2022-10-13T09:25:06.825Z,7.90
2022-10-13T09:27:55.018Z,7.97
2022-10-13T09:30:34.989Z,7.70
2022-10-13T09:33:13.695Z,7.23
2022-10-13T09:35:42.896Z,7.33
2022-10-13T09:38:21.393Z,7.70
2022-10-13T09:41:06.182Z,8.00
2022-10-13T09:43:50.776Z,7.57
2022-10-13T09:46:25.694Z,7.57
2022-10-13T09:48:55.389Z,7.57
2022-10-13T09:51:33.465Z,7.20
2022-10-13T09:54:00.090Z,7.67
2022-10-13T09:56:44.272Z,7.93
2022-10-13T09:59:33.902Z,7.13
2022-10-13T10:02:37.703Z,7.93
2022-10-13T10:05:15.755Z,7.83
2022-10-13T10:07:42.815Z,7.20
2022-10-13T10:10:47.949Z,7.37
2022-10-13T10:13:15.124Z,7.50
2022-10-13T10:15:50.495Z,6.77
2022-10-13T10:18:39.112Z,7.27
2022-10-13T10:21:26.780Z,6.73
2022-10-13T10:24:07.433Z,6.40
2022-10-13T10:26:48.684Z,7.27
2022-10-13T10:29:24.236Z,6.67
2022-10-13T10:32:04.178Z,6.37
2022-10-13T10:34:42.054Z,8.23
2022-10-13T10:37:08.465Z,7.50
2022-10-13T10:39:46.379Z,6.77
2022-10-13T10:42:33.469Z,7.03
2022-10-13T10:45:03.571Z,6.97
2022-10-13T10:47:42.076Z,7.03
2022-10-13T10:50:13.449Z,6.47
2022-10-13T10:53:06.987Z,7.20
2022-10-13T10:55:52.222Z,7.27
2022-10-13T10:58:24.238Z,6.97
2022-10-13T11:01:02.691Z,7.00
2022-10-13T11:03:40.134Z,6.97
2022-10-13T11:06:23.940Z,6.60
2022-10-13T11:08:50.624Z,6.63
2022-10-13T11:11:24.780Z,6.90
2022-10-13T11:13:56.363Z,6.90
2022-10-13T11:16:30.530Z,6.87
2022-10-13T11:18:59.488Z,6.10
2022-10-13T11:21:26.150Z,6.63
2022-10-13T11:23:52.491Z,5.80
2022-10-13T11:26:31.766Z,6.40
2022-10-13T11:28:58.900Z,6.37
2022-10-13T11:31:33.560Z,6.70
2022-10-13T11:34:02.764Z,7.03
2022-10-13T11:37:01.738Z,7.13
2022-10-13T11:39:50.732Z,6.53
2022-10-13T11:42:46.236Z,6.07
2022-10-13T11:45:24.880Z,6.90
2022-10-13T11:48:15.417Z,5.53
2022-10-13T11:50:41.874Z,5.73
2022-10-13T11:53:28.061Z,5.70
2022-10-13T11:55:58.735Z,6.63
2022-10-13T11:58:33.115Z,6.03
2022-10-13T12:01:11.956Z,6.43
2022-10-13T12:03:44.702Z,6.70
2022-10-13T12:06:26.785Z,6.53
2022-10-13T12:08:53.279Z,6.93
2022-10-13T12:11:26.110Z,6.67
2022-10-13T12:13:53.574Z,7.03
2022-10-13T12:16:21.309Z,7.87
2022-10-13T12:18:48.463Z,6.20
2022-10-13T12:21:17.548Z,6.80
2022-10-13T12:23:43.997Z,7.00
2022-10-13T12:26:21.848Z,6.90
2022-10-13T12:28:54.558Z,7.00
2022-10-13T12:31:30.643Z,7.00
2022-10-13T12:34:01.549Z,7.00
2022-10-13T12:36:33.678Z,6.97
2022-10-13T12:39:14.099Z,7.53
2022-10-13T12:41:45.992Z,7.43
2022-10-13T12:44:20.917Z,7.20
2022-10-13T12:46:58.618Z,7.20
2022-10-13T12:49:30.800Z,7.27
2022-10-13T12:52:05.674Z,6.57
2022-10-13T12:54:34.779Z,6.80
2022-10-13T12:57:05.822Z,6.93
2022-10-13T12:59:34.417Z,6.27
2022-10-13T13:02:03.449Z,6.60
2022-10-13T13:04:42.570Z,5.90
2022-10-13T13:07:41.096Z,6.50
2022-10-13T13:10:07.414Z,5.53
2022-10-13T13:12:37.326Z,5.80
2022-10-13T13:15:25.430Z,6.70
2022-10-13T13:17:58.438Z,6.13
2022-10-13T13:20:33.745Z,6.03
2022-10-13T13:23:00.685Z,6.33
2022-10-13T13:25:27.097Z,6.17
2022-10-13T13:27:53.619Z,5.97
2022-10-13T13:30:22.111Z,6.67
2022-10-13T13:32:48.670Z,6.10
2022-10-13T13:35:15.402Z,6.40
2022-10-13T13:37:47.850Z,5.60
2022-10-13T13:40:19.925Z,5.87
2022-10-13T13:42:46.383Z,5.60
2022-10-13T13:45:14.443Z,5.83
2022-10-13T13:47:40.930Z,6.23
2022-10-13T13:50:18.586Z,5.87
2022-10-13T13:52:45.100Z,6.40
2022-10-13T13:55:11.527Z,5.63
2022-10-13T13:57:37.894Z,6.00
2022-10-13T14:00:05.885Z,6.47
2022-10-13T14:02:32.602Z,5.73
2022-10-13T14:04:58.950Z,6.67
2022-10-13T14:07:25.449Z,6.17
2022-10-13T14:09:53.172Z,6.10
2022-10-13T14:12:20.459Z,6.53
2022-10-13T14:14:47.121Z,6.53
2022-10-13T14:17:13.526Z,6.60
2022-10-13T14:19:41.606Z,6.73
2022-10-13T14:22:09.558Z,7.00
2022-10-13T14:24:36.048Z,6.50
2022-10-13T14:27:02.548Z,6.50
2022-10-13T14:29:29.445Z,7.20
2022-10-13T14:31:56.040Z,6.83
2022-10-13T14:34:22.542Z,7.87
2022-10-13T14:36:48.854Z,7.27
2022-10-13T14:39:15.261Z,8.13
2022-10-13T14:41:41.828Z,7.43
2022-10-13T14:44:12.018Z,6.73
2022-10-13T14:46:38.482Z,7.27
2022-10-13T14:49:04.894Z,7.30
2022-10-13T14:51:32.388Z,7.00
2022-10-13T14:53:59.080Z,7.47
2022-10-13T14:56:27.346Z,7.17
2022-10-13T14:58:56.135Z,6.90
2022-10-13T15:01:22.707Z,7.73
2022-10-13T15:03:50.107Z,7.07
2022-10-13T15:06:22.581Z,6.43
2022-10-13T15:08:49.628Z,7.70
2022-10-13T15:11:17.155Z,7.37
2022-10-13T15:13:44.225Z,7.90
2022-10-13T15:16:18.050Z,7.00
2022-10-13T15:18:44.604Z,7.67
2022-10-13T15:21:11.547Z,6.77
2022-10-13T15:23:38.019Z,6.47
2022-10-13T15:26:04.844Z,6.50
2022-10-13T15:28:35.677Z,6.67
2022-10-13T15:31:02.306Z,7.20
2022-10-13T15:33:29.750Z,7.17
2022-10-13T15:35:56.805Z,6.93
2022-10-13T15:38:23.898Z,7.63
2022-10-13T15:40:51.276Z,7.90
2022-10-13T15:43:18.246Z,7.07
2022-10-13T15:45:55.002Z,7.37
2022-10-13T15:48:21.546Z,6.77
2022-10-13T15:50:47.866Z,8.40
2022-10-13T15:53:14.574Z,7.40
2022-10-13T15:55:41.064Z,7.17
2022-10-13T15:58:12.733Z,6.50
2022-10-13T16:00:40.497Z,7.13
2022-10-13T16:03:07.374Z,7.27
2022-10-13T16:05:34.636Z,7.63
2022-10-13T16:08:00.968Z,7.20
2022-10-13T16:10:27.434Z,7.27
2022-10-13T16:12:53.768Z,7.53
2022-10-13T16:15:20.148Z,7.70
2022-10-13T16:17:46.664Z,7.43
2022-10-13T16:20:13.056Z,7.93
2022-10-13T16:22:39.368Z,7.43
2022-10-13T16:25:06.266Z,7.23
2022-10-13T16:27:32.734Z,7.27
2022-10-13T16:29:59.323Z,7.17
2022-10-13T16:32:25.820Z,7.13
2022-10-13T16:34:52.127Z,7.73
2022-10-13T16:37:19.494Z,7.40
2022-10-13T16:39:51.184Z,7.77
2022-10-13T16:42:17.923Z,7.23
2022-10-13T16:44:44.343Z,7.30
2022-10-13T16:47:18.054Z,7.77
2022-10-13T16:49:44.891Z,7.47
2022-10-13T16:52:11.364Z,7.53
2022-10-13T16:54:37.768Z,7.40
2022-10-13T16:57:04.195Z,7.97
2022-10-13T16:59:30.653Z,8.57
2022-10-13T17:01:57.831Z,8.23
2022-10-13T17:04:24.434Z,7.77
2022-10-13T17:06:50.789Z,8.03
2022-10-13T17:09:17.192Z,8.87
2022-10-13T17:11:43.794Z,8.43
2022-10-13T17:14:10.771Z,8.30
2022-10-13T17:16:37.138Z,8.83
2022-10-13T17:19:03.905Z,8.73
2022-10-13T17:21:30.340Z,8.50
2022-10-13T17:23:57.217Z,9.17
2022-10-13T17:26:23.876Z,8.47
2022-10-13T17:28:50.456Z,8.63
2022-10-13T17:31:21.956Z,8.70
2022-10-13T17:33:49.881Z,9.07
2022-10-13T17:36:20.288Z,8.90
2022-10-13T17:38:48.687Z,9.27
2022-10-13T17:41:15.519Z,9.30
2022-10-13T17:43:42.344Z,9.17
2022-10-13T17:46:34.475Z,9.17
2022-10-13T17:48:56.819Z,9.53
2022-10-13T17:51:23.798Z,11.60
2022-10-13T17:53:51.847Z,12.00
2022-10-13T17:56:21.587Z,10.73
2022-10-13T17:58:48.436Z,11.33
2022-10-13T18:01:20.778Z,10.47
2022-10-13T18:03:50.055Z,11.10
2022-10-13T18:06:18.201Z,11.23
2022-10-13T18:08:44.542Z,10.57
2022-10-13T18:11:15.047Z,12.07
2022-10-13T18:13:42.819Z,13.40
2022-10-13T18:16:14.742Z,12.30
2022-10-13T18:18:43.860Z,12.30
2022-10-13T18:21:15.074Z,13.47
2022-10-13T18:23:41.839Z,12.90
2022-10-13T18:26:19.298Z,12.47
2022-10-13T18:28:47.493Z,10.97
2022-10-13T18:31:27.427Z,11.40
2022-10-13T18:33:55.668Z,11.80
2022-10-13T18:36:23.606Z,10.40
2022-10-13T18:38:50.985Z,10.53
2022-10-13T18:41:18.770Z,10.87
2022-10-13T18:43:45.106Z,11.10
2022-10-13T18:46:11.981Z,11.47
2022-10-13T18:48:38.898Z,12.43
2022-10-13T18:51:14.167Z,11.67
2022-10-13T18:53:42.791Z,12.27
2022-10-13T18:56:29.887Z,12.70
2022-10-13T18:58:59.881Z,12.17
2022-10-13T19:01:29.105Z,15.33
2022-10-13T19:03:56.378Z,14.10
2022-10-13T19:06:27.033Z,14.37
2022-10-13T19:09:00.429Z,13.40
2022-10-13T19:11:28.591Z,12.97
2022-10-13T19:13:55.705Z,13.30
2022-10-13T19:16:24.078Z,14.27
2022-10-13T19:18:51.479Z,17.30
2022-10-13T19:21:19.143Z,17.27
2022-10-13T19:23:46.008Z,14.27
2022-10-13T19:26:19.614Z,13.90
2022-10-13T19:28:46.565Z,13.77
2022-10-13T19:31:21.588Z,17.90
2022-10-13T19:33:50.278Z,18.13
2022-10-13T19:36:38.955Z,18.60
2022-10-13T19:39:11.786Z,18.37
2022-10-13T19:41:38.596Z,18.63
2022-10-13T19:44:04.958Z,15.17
2022-10-13T19:46:31.686Z,14.97
2022-10-13T19:48:58.023Z,13.37
2022-10-13T19:51:24.610Z,13.43
2022-10-13T19:53:50.942Z,13.13
2022-10-13T19:56:26.470Z,12.67
2022-10-13T19:58:53.798Z,15.07
2022-10-13T20:01:21.061Z,13.60
2022-10-13T20:03:48.191Z,12.93
2022-10-13T20:06:15.018Z,13.40
2022-10-13T20:08:41.414Z,15.00
2022-10-13T20:11:09.885Z,15.50
2022-10-13T20:13:36.679Z,15.70
2022-10-13T20:16:08.046Z,14.20
2022-10-13T20:18:34.802Z,11.97
2022-10-13T20:21:05.804Z,11.03
2022-10-13T20:23:32.743Z,10.90
2022-10-13T20:26:03.925Z,10.03
2022-10-13T20:28:30.350Z,9.20
2022-10-13T20:30:57.085Z,9.60
2022-10-13T20:33:23.519Z,9.37
2022-10-13T20:35:49.859Z,8.77
2022-10-13T20:38:18.102Z,10.30
2022-10-13T20:40:45.035Z,10.73
2022-10-13T20:43:11.443Z,11.53
2022-10-13T20:45:37.824Z,11.27
2022-10-13T20:48:04.319Z,11.43
2022-10-13T20:50:30.635Z,11.50
2022-10-13T20:52:56.991Z,12.20
2022-10-13T20:55:23.447Z,10.00
2022-10-13T20:57:52.748Z,11.10
2022-10-13T21:00:19.133Z,10.90
2022-10-13T21:02:48.747Z,11.13
2022-10-13T21:05:15.646Z,11.50
2022-10-13T21:07:42.164Z,10.30
2022-10-13T21:10:08.932Z,10.97
2022-10-13T21:12:35.241Z,9.87
2022-10-13T21:15:01.596Z,10.67
2022-10-13T21:17:29.689Z,9.90
2022-10-13T21:19:56.074Z,9.90
2022-10-13T21:22:22.531Z,10.40
2022-10-13T21:24:48.836Z,10.00
2022-10-13T21:27:15.387Z,8.77
2022-10-13T21:29:41.711Z,9.20
2022-10-13T21:32:08.025Z,9.47
2022-10-13T21:34:34.363Z,9.37
2022-10-13T21:37:00.679Z,8.83
2022-10-13T21:39:27.095Z,8.40
2022-10-13T21:41:53.441Z,8.27
2022-10-13T21:44:19.767Z,8.63
2022-10-13T21:46:46.246Z,9.07
2022-10-13T21:49:12.606Z,8.53
2022-10-13T21:51:40.278Z,8.73
2022-10-13T21:54:12.535Z,8.37
2022-10-13T21:56:40.110Z,8.87
2022-10-13T21:59:06.875Z,8.10
2022-10-13T22:01:33.398Z,8.00
2022-10-13T22:04:01.750Z,8.63
2022-10-13T22:06:29.630Z,7.77
2022-10-13T22:08:58.261Z,7.70
2022-10-13T22:11:27.195Z,9.00
2022-10-13T22:13:55.164Z,7.77
2022-10-13T22:16:24.467Z,8.43
2022-10-13T22:18:52.229Z,7.80
2022-10-13T22:21:21.550Z,8.17
2022-10-13T22:23:48.275Z,7.43
2022-10-13T22:26:18.955Z,7.80
2022-10-13T22:28:45.729Z,7.40
2022-10-13T22:31:13.256Z,6.83
2022-10-13T22:33:41.473Z,7.03
2022-10-13T22:36:18.553Z,7.23
2022-10-13T22:38:46.757Z,6.90
2022-10-13T22:41:15.356Z,6.60
2022-10-13T22:43:46.490Z,7.00
2022-10-13T22:46:17.431Z,7.53
2022-10-13T22:48:43.986Z,7.57
2022-10-13T22:51:12.310Z,7.43
2022-10-13T22:53:39.286Z,8.50
2022-10-13T22:56:11.442Z,7.80
2022-10-13T22:58:37.920Z,8.50
2022-10-13T23:01:13.470Z,8.63
2022-10-13T23:03:40.409Z,8.17
2022-10-13T23:06:08.746Z,8.90
2022-10-13T23:08:35.350Z,8.40
2022-10-13T23:11:01.778Z,9.57
2022-10-13T23:13:28.192Z,8.83
2022-10-13T23:15:54.565Z,9.13
2022-10-13T23:18:21.003Z,9.77
2022-10-13T23:20:47.494Z,9.77
2022-10-13T23:23:13.812Z,9.70
2022-10-13T23:25:40.125Z,10.33
2022-10-13T23:28:06.601Z,10.27
2022-10-13T23:30:33.038Z,10.33
2022-10-13T23:32:59.349Z,10.23
2022-10-13T23:35:25.731Z,10.70
2022-10-13T23:37:52.970Z,11.63
2022-10-13T23:40:19.372Z,10.83
2022-10-13T23:42:45.875Z,11.13
2022-10-13T23:45:12.278Z,11.20
2022-10-13T23:47:38.613Z,11.17
2022-10-13T23:50:05.439Z,11.03
2022-10-13T23:52:31.822Z,12.10
2022-10-13T23:54:58.134Z,11.13
2022-10-13T23:57:24.483Z,10.73
2022-10-13T23:59:50.875Z,11.70
